Commodore Clipper — C6QQ3 — position and weather

sailwx.info

Track history (hours):
 
Tides and Currents Weather Stations Pressure Air Temp Water Temp Dewpoint Dewpoint Depression Visibility Wind Speed Wind Dir Waves Ship Positions

Commodore Clipper

Operator: Condor Marine Services

Last reported at 2018-Nov-11 02:24 UTC. Time now 2018-Nov-14 02:28 UTC.
Position N 49°45' W 002°04'.

Length 130 m; draft 5.3 m.

Type: Ship. MMSI: 308094000.

Date/timePositionNaut miles runAvg speedWind from/ knotsBaromVisibWave heightAir tempDewpointWater temp
2018-Nov-11 02:24N 49°45' W 002°04'712.5
2018-Nov-11 01:51N 49°38' W 002°06'514.8
2018-Nov-11 01:31N 49°33' W 002°08'715.7
2018-Nov-11 01:02N 49°27' W 002°14'816.1
2018-Nov-11 00:32N 49°20' W 002°20'915.2
2018-Nov-10 23:57N 49°11' W 002°19'9 2.4
2018-Nov-10 20:05N 49°18' W 002°28'114.0
2018-Nov-10 20:02N 49°19' W 002°28'713.7
2018-Nov-10 19:32N 49°25' W 002°29'3 5.3
2018-Nov-10 19:02N 49°27' W 002°32'0 0.0
2018-Nov-10 18:32N 49°27' W 002°32'0 0.0
2018-Nov-10 18:01N 49°27' W 002°32'0 0.0
2018-Nov-10 17:32N 49°27' W 002°32'0 0.0
2018-Nov-10 17:02N 49°27' W 002°32'3 6.9
2018-Nov-10 16:32N 49°26' W 002°27'916.7
2018-Nov-10 16:02N 49°30' W 002°16'816.4
2018-Nov-10 15:32N 49°35' W 002°06'1120.0
2018-Nov-10 15:00N 49°45' W 002°00'918.9
2018-Nov-10 14:32N 49°52' W 001°52'918.1
2018-Nov-10 14:02N 49°59' W 001°44'917.1
2018-Nov-10 13:32N 50°05' W 001°34'816.3
2018-Nov-10 13:03N 50°11' W 001°25'815.8
2018-Nov-10 12:31N 50°17' W 001°17'815.5
2018-Nov-10 12:02N 50°25' W 001°13'715.2
2018-Nov-10 11:33N 50°32' W 001°11'714.3
2018-Nov-10 11:03N 50°38' W 001°06'612.1
2018-Nov-10 10:33N 50°44' W 001°04'5 9.4
2018-Nov-10 10:02N 50°49' W 001°07'1 1.2
2018-Nov-10 09:32N 50°49' W 001°06'0 0.0
2018-Nov-10 09:02N 50°49' W 001°06'0 0.0
2018-Nov-10 08:32N 50°49' W 001°06'0 0.0
2018-Nov-10 08:02N 50°49' W 001°06'0 0.0
2018-Nov-10 07:32N 50°49' W 001°06'0 0.0
2018-Nov-10 07:02N 50°49' W 001°06'0 0.0
2018-Nov-10 06:32N 50°49' W 001°06'0 0.0
2018-Nov-10 06:02N 50°49' W 001°06'0 0.0
2018-Nov-10 05:32N 50°49' W 001°06'0 0.0
2018-Nov-10 05:02N 50°49' W 001°06'0 0.0
2018-Nov-10 04:32N 50°49' W 001°06'0 0.0
2018-Nov-10 04:02N 50°49' W 001°06'0 0.0
2018-Nov-10 03:32N 50°49' W 001°06'0 0.0
2018-Nov-10 03:02N 50°49' W 001°06'0 0.0
2018-Nov-10 02:32N 50°49' W 001°06'0 0.0
2018-Nov-10 02:02N 50°49' W 001°06'0 0.0
2018-Nov-10 01:32N 50°49' W 001°06'0 0.0
2018-Nov-10 01:02N 50°49' W 001°06'0 0.0
2018-Nov-10 00:32N 50°49' W 001°06'0 0.0
2018-Nov-10 00:02N 50°49' W 001°06'0 0.0
2018-Nov-09 23:32N 50°49' W 001°06'0 0.0
2018-Nov-09 23:02N 50°49' W 001°06'0 0.0
2018-Nov-09 22:32N 50°49' W 001°06'0 0.0
2018-Nov-09 22:02N 50°49' W 001°06'0 0.0
2018-Nov-09 21:32N 50°49' W 001°06'0 0.0
2018-Nov-09 21:02N 50°49' W 001°06'0 0.0
2018-Nov-09 20:32N 50°49' W 001°06'0 0.0
2018-Nov-09 20:02N 50°49' W 001°06'0 0.0
2018-Nov-09 19:32N 50°49' W 001°06'0 0.0
2018-Nov-09 19:02N 50°49' W 001°06'0 0.0
2018-Nov-09 18:32N 50°49' W 001°06'0 0.0
2018-Nov-09 18:02N 50°49' W 001°06'0 0.0
2018-Nov-09 17:32N 50°49' W 001°06'0 0.0
2018-Nov-09 17:02N 50°49' W 001°06'0 0.0
2018-Nov-09 16:32N 50°49' W 001°06'0 0.0
2018-Nov-09 16:02N 50°49' W 001°06'0 0.0
2018-Nov-09 15:32N 50°49' W 001°06'0 0.0
2018-Nov-09 15:02N 50°49' W 001°06'0 0.0
2018-Nov-09 14:32N 50°49' W 001°06'0 0.0
2018-Nov-09 14:02N 50°49' W 001°06'0 0.0
2018-Nov-09 13:32N 50°49' W 001°06'0 0.0
2018-Nov-09 13:02N 50°49' W 001°06'0 0.0
2018-Nov-09 12:32N 50°49' W 001°06'0 0.0
2018-Nov-09 12:02N 50°49' W 001°06'0 0.0
2018-Nov-09 11:32N 50°49' W 001°06'0 0.0
2018-Nov-09 11:02N 50°49' W 001°06'0 0.0
2018-Nov-09 10:32N 50°49' W 001°06'0 0.0
2018-Nov-09 10:02N 50°49' W 001°06'0 0.0
2018-Nov-09 09:32N 50°49' W 001°06'0 0.0
2018-Nov-09 09:02N 50°49' W 001°06'0 0.0
2018-Nov-09 08:32N 50°49' W 001°06'0 0.0
2018-Nov-09 08:02N 50°49' W 001°06'0 0.0
2018-Nov-09 07:32N 50°49' W 001°06'0 0.0
2018-Nov-09 07:02N 50°49' W 001°06'0 0.3
2018-Nov-09 06:32N 50°49' W 001°06'4 7.5
2018-Nov-09 06:03N 50°45' W 001°05'713.8
2018-Nov-09 05:32N 50°38' W 001°02'816.8
2018-Nov-09 05:02N 50°31' W 001°10'816.1
2018-Nov-09 04:32N 50°25' W 001°17'815.7
2018-Nov-09 04:02N 50°18' W 001°24'714.7
2018-Nov-09 03:32N 50°13' W 001°32'714.0
2018-Nov-09 03:02N 50°08' W 001°40'713.8
2018-Nov-09 02:32N 50°03' W 001°47'713.9
2018-Nov-09 02:02N 49°57' W 001°53'713.8
2018-Nov-09 01:32N 49°51' W 001°58'813.4
2018-Nov-09 00:58N 49°44' W 002°03'1313.5
2018-Nov-09 00:01N 49°32' W 002°07'916.1
2018-Nov-08 23:28N 49°24' W 002°15'716.1
2018-Nov-08 23:02N 49°18' W 002°20'2 0.6
2018-Nov-08 18:53N 49°18' W 002°24'514.8
2018-Nov-08 18:32N 49°23' W 002°27'611.8
2018-Nov-08 18:02N 49°27' W 002°32'0 0.0
2018-Nov-08 17:32N 49°27' W 002°32'0 0.0
2018-Nov-08 17:02N 49°27' W 002°32'0 0.0
2018-Nov-08 16:32N 49°27' W 002°32'4 8.2
2018-Nov-08 16:02N 49°26' W 002°26'1217.1
2018-Nov-08 15:22N 49°33' W 002°11'617.9
2018-Nov-08 15:02N 49°37' W 002°05'919.3
2018-Nov-08 14:32N 49°46' W 002°01'918.4
2018-Nov-08 14:02N 49°54' W 001°53'918.7
2018-Nov-08 13:32N 50°02' W 001°45'917.7
2018-Nov-08 13:02N 50°10' W 001°38'816.9
2018-Nov-08 12:32N 50°17' W 001°31'1114.3
2018-Nov-08 11:46N 50°25' W 001°20'314.7
2018-Nov-08 11:32N 50°28' W 001°17'714.9
2018-Nov-08 11:02N 50°34' W 001°10'815.3
2018-Nov-08 10:32N 50°40' W 001°03'713.4
2018-Nov-08 10:02N 50°47' W 001°06'2 3.8
2018-Nov-08 09:32N 50°49' W 001°06'0 0.0
2018-Nov-08 09:02N 50°49' W 001°06'0 0.0
2018-Nov-08 08:32N 50°49' W 001°06'0 0.0
2018-Nov-08 08:02N 50°49' W 001°06'0 0.0
2018-Nov-08 07:32N 50°49' W 001°06'2 4.3
2018-Nov-08 07:02N 50°47' W 001°06'510.8
2018-Nov-08 06:33N 50°42' W 001°01'917.9
2018-Nov-08 06:02N 50°34' W 001°07'1018.4
2018-Nov-08 05:31N 50°26' W 001°15'817.6
2018-Nov-08 05:02N 50°19' W 001°21'816.6
2018-Nov-08 04:33N 50°12' W 001°29'815.7
2018-Nov-08 04:02N 50°06' W 001°37'815.3
2018-Nov-08 03:33N 50°00' W 001°44'714.7
2018-Nov-08 03:02N 49°54' W 001°51'714.4
2018-Nov-08 02:32N 49°49' W 001°58'812.8
2018-Nov-08 01:57N 49°43' W 002°05'712.5
2018-Nov-08 01:25N 49°36' W 002°07'514.2
2018-Nov-08 01:02N 49°31' W 002°09'514.5
2018-Nov-08 00:41N 49°26' W 002°13'214.5
2018-Nov-08 00:32N 49°25' W 002°15'214.9
2018-Nov-08 00:26N 49°23' W 002°16'614.4
2018-Nov-08 00:00N 49°18' W 002°22'5 1.7
2018-Nov-07 20:54N 49°13' W 002°20'715.2
2018-Nov-07 20:28N 49°19' W 002°24'716.2
2018-Nov-07 20:02N 49°25' W 002°29'3 5.2
2018-Nov-07 19:32N 49°27' W 002°32'0 0.0
2018-Nov-07 19:02N 49°27' W 002°32'0 0.0
2018-Nov-07 18:32N 49°27' W 002°32'0 0.0
2018-Nov-07 18:02N 49°27' W 002°32'2 3.1
2018-Nov-07 17:32N 49°27' W 002°30'510.1
2018-Nov-07 17:02N 49°28' W 002°22'814.2
2018-Nov-07 16:28N 49°33' W 002°12'714.0
2018-Nov-07 15:58N 49°38' W 002°05'715.6
2018-Nov-07 15:31N 49°44' W 002°00'817.0
2018-Nov-07 15:02N 49°49' W 001°50'917.8
2018-Nov-07 14:32N 49°54' W 001°39'816.9
2018-Nov-07 14:02N 50°01' W 001°32'815.7
2018-Nov-07 13:32N 50°08' W 001°26'713.7
2018-Nov-07 13:02N 50°15' W 001°24'1012.4
2018-Nov-07 12:16N 50°24' W 001°20'313.1
2018-Nov-07 12:02N 50°27' W 001°18'714.9
2018-Nov-07 11:33N 50°33' W 001°11'815.5
2018-Nov-07 11:02N 50°40' W 001°05'612.4
2018-Nov-07 10:32N 50°46' W 001°05'3 6.1
2018-Nov-07 10:02N 50°49' W 001°06'0 0.0
2018-Nov-07 09:32N 50°49' W 001°06'0 0.0
2018-Nov-07 09:02N 50°49' W 001°06'0 0.0
2018-Nov-07 08:32N 50°49' W 001°06'0 0.0
2018-Nov-07 08:02N 50°49' W 001°06'0 0.0
2018-Nov-07 07:32N 50°49' W 001°06'0 0.0
2018-Nov-07 07:02N 50°49' W 001°06'0 0.0
2018-Nov-07 06:32N 50°49' W 001°06'1 2.2
2018-Nov-07 06:02N 50°48' W 001°07'612.4
2018-Nov-07 05:32N 50°43' W 001°01'612.9
2018-Nov-07 05:02N 50°37' W 001°05'2 4.1
2018-Nov-07 04:32N 50°38' W 001°08'5410.8
2018-Nov-06 23:30N 49°52' W 001°54'612.6
2018-Nov-06 23:03N 49°47' W 001°58'211.0
2018-Nov-06 22:54N 49°46' W 002°00'1111.6
2018-Nov-06 21:59N 49°37' W 002°08'510.6
2018-Nov-06 21:28N 49°32' W 002°13'511.3
2018-Nov-06 21:03N 49°30' W 002°19'111.7
2018-Nov-06 21:00N 49°29' W 002°20'612.2
2018-Nov-06 20:30N 49°26' W 002°27'20 5.4
2018-Nov-06 16:45N 49°10' W 002°08'813.3
2018-Nov-06 16:10N 49°12' W 002°19'214.3
2018-Nov-06 16:00N 49°14' W 002°21'1912.5
2018-Nov-06 14:30N 49°32' W 002°09'1618.3
2018-Nov-06 13:39N 49°46' W 002°01'318.6
2018-Nov-06 13:31N 49°48' W 001°59'818.5
2018-Nov-06 13:04N 49°56' W 001°52'118.6
2018-Nov-06 13:01N 49°56' W 001°52'918.7
2018-Nov-06 12:30N 50°04' W 001°44'918.8
2018-Nov-06 12:03N 50°11' W 001°36'118.6
2018-Nov-06 12:01N 50°12' W 001°35'1617.9
2018-Nov-06 11:05N 50°25' W 001°20'117.5
2018-Nov-06 11:01N 50°26' W 001°19'018.1
2018-Nov-06 11:00N 50°26' W 001°19'917.7
2018-Nov-06 10:30N 50°34' W 001°11'817.6
2018-Nov-06 10:03N 50°40' W 001°04'117.2
2018-Nov-06 10:01N 50°41' W 001°03'713.8
2018-Nov-06 09:30N 50°47' W 001°07'2 3.5
2018-Nov-06 09:03N 50°49' W 001°06'0 0.0
2018-Nov-06 09:01N 50°49' W 001°06'0 0.0
2018-Nov-06 08:30N 50°49' W 001°06'0 0.0
2018-Nov-06 08:03N 50°49' W 001°06'0 0.1
2018-Nov-06 08:01N 50°49' W 001°06'0 0.0
2018-Nov-06 07:30N 50°49' W 001°06'0 0.0
2018-Nov-06 07:03N 50°49' W 001°06'0 0.1
2018-Nov-06 07:00N 50°49' W 001°06'0 0.0
2018-Nov-06 06:31N 50°49' W 001°06'1 2.7
2018-Nov-06 06:03N 50°48' W 001°07'110.5
2018-Nov-06 06:01N 50°47' W 001°07'713.4
2018-Nov-06 05:31N 50°42' W 001°00'715.1
2018-Nov-06 05:03N 50°36' W 001°05'114.4
2018-Nov-06 05:00N 50°35' W 001°06'714.6
2018-Nov-06 04:30N 50°29' W 001°12'714.6
2018-Nov-06 04:03N 50°24' W 001°18'115.0
2018-Nov-06 04:01N 50°23' W 001°19'815.0
2018-Nov-06 03:30N 50°17' W 001°25'715.3
2018-Nov-06 03:03N 50°11' W 001°31'116.0
2018-Nov-06 03:00N 50°11' W 001°32'815.8
2018-Nov-06 02:30N 50°04' W 001°39'715.2
2018-Nov-06 02:03N 49°59' W 001°46'114.9
2018-Nov-06 02:00N 49°58' W 001°47'714.8
2018-Nov-06 01:30N 49°52' W 001°54'1313.4
2018-Nov-06 00:30N 49°41' W 002°05'1313.5
2018-Nov-05 23:30N 49°30' W 002°17'714.5
2018-Nov-05 23:03N 49°27' W 002°26'112.9
2018-Nov-05 23:00N 49°26' W 002°26'4 7.2
2018-Nov-05 22:30N 49°27' W 002°32'0 0.0
2018-Nov-05 22:03N 49°27' W 002°32'0 0.0
2018-Nov-05 22:00N 49°27' W 002°32'0 0.0
2018-Nov-05 21:30N 49°27' W 002°32'0 0.0
2018-Nov-05 21:03N 49°27' W 002°32'0 0.0
2018-Nov-05 21:00N 49°27' W 002°32'23 5.7
2018-Nov-05 16:53N 49°11' W 002°07'712.5
2018-Nov-05 16:17N 49°11' W 002°18'413.5
2018-Nov-05 16:00N 49°13' W 002°22'1412.9
2018-Nov-05 14:56N 49°26' W 002°14'2216.7
2018-Nov-05 13:39N 49°46' W 002°01'1118.3
2018-Nov-05 13:03N 49°55' W 001°51'119.0
2018-Nov-05 13:01N 49°56' W 001°51'918.8
2018-Nov-05 12:31N 50°03' W 001°42'818.7
2018-Nov-05 12:04N 50°10' W 001°35'118.3
2018-Nov-05 12:00N 50°11' W 001°34'918.3
2018-Nov-05 11:30N 50°19' W 001°27'818.1
2018-Nov-05 11:03N 50°26' W 001°20'118.1
2018-Nov-05 11:00N 50°26' W 001°19'918.5
2018-Nov-05 10:30N 50°34' W 001°11'818.6
2018-Nov-05 10:03N 50°41' W 001°03'116.0
2018-Nov-05 10:01N 50°42' W 001°03'713.6
2018-Nov-05 09:30N 50°48' W 001°07'1 2.6
2018-Nov-05 09:03N 50°49' W 001°06'0 0.1
2018-Nov-05 09:00N 50°49' W 001°06'0 0.0
2018-Nov-05 08:30N 50°49' W 001°06'0 0.0
2018-Nov-05 08:03N 50°49' W 001°06'0 0.0
2018-Nov-05 08:00N 50°49' W 001°06'0 0.0
2018-Nov-05 07:30N 50°49' W 001°06'0 0.0
2018-Nov-05 07:03N 50°49' W 001°06'0 0.0
2018-Nov-05 07:00N 50°49' W 001°06'0 0.0
2018-Nov-05 06:30N 50°49' W 001°06'0 0.0
2018-Nov-05 06:03N 50°49' W 001°06'0 0.2
2018-Nov-05 06:00N 50°49' W 001°06'0 0.0
2018-Nov-05 05:30N 50°49' W 001°06'0 0.0
2018-Nov-05 05:03N 50°49' W 001°06'0 0.0
2018-Nov-05 05:00N 50°49' W 001°06'0 0.0
2018-Nov-05 04:30N 50°49' W 001°06'0 0.0
2018-Nov-05 04:03N 50°49' W 001°06'0 0.0
2018-Nov-05 04:00N 50°49' W 001°06'0 0.0
2018-Nov-05 03:30N 50°49' W 001°06'0 0.0
2018-Nov-05 03:03N 50°49' W 001°06'0 0.0
2018-Nov-05 03:00N 50°49' W 001°06'0 0.0
2018-Nov-05 02:30N 50°49' W 001°06'0 0.0
2018-Nov-05 02:03N 50°49' W 001°06'0 0.1
2018-Nov-05 02:00N 50°49' W 001°06'0 0.0
2018-Nov-05 01:30N 50°49' W 001°06'0 0.0
2018-Nov-05 01:03N 50°49' W 001°06'0 0.0
2018-Nov-05 01:00N 50°49' W 001°06'0 0.0
2018-Nov-05 00:30N 50°49' W 001°06'0 0.0
2018-Nov-05 00:03N 50°49' W 001°06'0 0.0
2018-Nov-05 00:00N 50°49' W 001°06'0 0.0
2018-Nov-04 23:30N 50°49' W 001°06'0 0.0
2018-Nov-04 23:03N 50°49' W 001°06'0 0.0
2018-Nov-04 23:00N 50°49' W 001°06'0 0.0
2018-Nov-04 22:30N 50°49' W 001°06'0 0.0
2018-Nov-04 22:03N 50°49' W 001°06'0 0.0
2018-Nov-04 22:00N 50°49' W 001°06'0 0.0
2018-Nov-04 21:30N 50°49' W 001°06'0 0.0
2018-Nov-04 21:03N 50°49' W 001°06'0 0.0
2018-Nov-04 21:00N 50°49' W 001°06'0 0.0
2018-Nov-04 20:30N 50°49' W 001°06'0 0.0
2018-Nov-04 20:03N 50°49' W 001°06'0 0.0
2018-Nov-04 20:00N 50°49' W 001°06'0 0.0
2018-Nov-04 19:30N 50°49' W 001°06'0 0.0
2018-Nov-04 19:03N 50°49' W 001°06'0 0.1
2018-Nov-04 19:00N 50°49' W 001°06'0 0.0
2018-Nov-04 18:30N 50°49' W 001°06'0 0.0
2018-Nov-04 18:03N 50°49' W 001°06'0 0.0
2018-Nov-04 18:00N 50°49' W 001°06'0 0.0
2018-Nov-04 17:03N 50°49' W 001°06'0 0.0
2018-Nov-04 17:00N 50°49' W 001°06'0 0.0
2018-Nov-04 16:30N 50°49' W 001°06'0 0.0
2018-Nov-04 16:03N 50°49' W 001°06'0 0.1
2018-Nov-04 16:00N 50°49' W 001°06'0 0.0
2018-Nov-04 15:30N 50°49' W 001°06'0 0.0
2018-Nov-04 15:03N 50°49' W 001°06'0 0.0
2018-Nov-04 15:00N 50°49' W 001°06'0 0.0
2018-Nov-04 14:30N 50°49' W 001°06'0 0.0
2018-Nov-04 14:03N 50°49' W 001°06'0 0.0
2018-Nov-04 14:00N 50°49' W 001°06'0 0.0
2018-Nov-04 13:30N 50°49' W 001°06'0 0.0
2018-Nov-04 13:03N 50°49' W 001°06'0 0.0
2018-Nov-04 13:00N 50°49' W 001°06'0 0.0
2018-Nov-04 12:30N 50°49' W 001°06'0 0.0
2018-Nov-04 12:03N 50°49' W 001°06'0 0.0
2018-Nov-04 12:00N 50°49' W 001°06'0 0.0
2018-Nov-04 11:30N 50°49' W 001°06'0 0.0
2018-Nov-04 11:03N 50°49' W 001°06'0 0.1
2018-Nov-04 11:00N 50°49' W 001°06'0 0.0
2018-Nov-04 10:30N 50°49' W 001°06'0 0.0
2018-Nov-04 10:03N 50°49' W 001°06'0 0.0
2018-Nov-04 10:00N 50°49' W 001°06'0 0.0
2018-Nov-04 09:30N 50°49' W 001°06'0 0.0
2018-Nov-04 09:03N 50°49' W 001°06'0 0.0
2018-Nov-04 09:00N 50°49' W 001°06'0 0.0
2018-Nov-04 08:30N 50°49' W 001°06'0 0.0
2018-Nov-04 08:03N 50°49' W 001°06'0 0.0
2018-Nov-04 08:00N 50°49' W 001°06'0 0.0
2018-Nov-04 07:30N 50°49' W 001°06'0 0.0
2018-Nov-04 07:03N 50°49' W 001°06'0 0.0
2018-Nov-04 07:00N 50°49' W 001°06'0 0.0
2018-Nov-04 06:30N 50°49' W 001°06'1 1.9
2018-Nov-04 06:04N 50°48' W 001°07'0 8.7
2018-Nov-04 06:01N 50°48' W 001°07'713.2
2018-Nov-04 05:31N 50°42' W 001°03'612.9
2018-Nov-04 05:04N 50°37' W 001°07'0 8.0
2018-Nov-04 05:01N 50°37' W 001°07'510.9
2018-Nov-04 04:30N 50°32' W 001°12'511.8
2018-Nov-04 04:03N 50°28' W 001°16'111.7
2018-Nov-04 04:00N 50°27' W 001°17'711.6
2018-Nov-04 03:23N 50°21' W 001°22'413.7
2018-Nov-04 03:03N 50°17' W 001°26'117.6
2018-Nov-04 03:01N 50°16' W 001°27'917.4
2018-Nov-04 02:30N 50°09' W 001°35'817.2
2018-Nov-04 02:03N 50°03' W 001°42'116.8
2018-Nov-04 02:00N 50°02' W 001°42'816.8
2018-Nov-04 01:31N 49°56' W 001°50'716.6
2018-Nov-04 01:03N 49°49' W 001°57'116.8
2018-Nov-04 01:00N 49°49' W 001°58'1215.2
2018-Nov-04 00:13N 49°38' W 002°07'215.1
2018-Nov-04 00:03N 49°36' W 002°08'115.2
2018-Nov-04 00:00N 49°35' W 002°09'816.0
2018-Nov-03 23:30N 49°30' W 002°18'715.3
2018-Nov-03 23:03N 49°26' W 002°27'114.4
2018-Nov-03 23:00N 49°26' W 002°27'3 6.8
2018-Nov-03 22:30N 49°27' W 002°32'10 4.8
2018-Nov-03 20:26N 49°19' W 002°24'9 2.4
2018-Nov-03 16:46N 49°11' W 002°18'414.4
2018-Nov-03 16:28N 49°15' W 002°20'1914.0
2018-Nov-03 15:05N 49°33' W 002°10'113.4
2018-Nov-03 15:02N 49°34' W 002°10'1012.6
2018-Nov-03 14:13N 49°43' W 002°04'312.5
2018-Nov-03 13:57N 49°46' W 002°01'613.8
2018-Nov-03 13:30N 49°51' W 001°55'715.1
2018-Nov-03 13:03N 49°57' W 001°50'115.4
2018-Nov-03 13:00N 49°57' W 001°49'815.8
2018-Nov-03 12:30N 50°04' W 001°43'716.4
2018-Nov-03 12:03N 50°10' W 001°36'116.5
2018-Nov-03 12:00N 50°11' W 001°35'1716.6
2018-Nov-03 10:58N 50°25' W 001°20'817.0
2018-Nov-03 10:30N 50°31' W 001°13'817.4
2018-Nov-03 10:03N 50°38' W 001°06'117.1
2018-Nov-03 10:00N 50°38' W 001°05'713.8
2018-Nov-03 09:30N 50°45' W 001°05'3 7.5
2018-Nov-03 09:03N 50°49' W 001°06'0 0.3
2018-Nov-03 09:00N 50°49' W 001°06'0 0.0
2018-Nov-03 08:30N 50°49' W 001°06'0 0.0
2018-Nov-03 08:03N 50°49' W 001°06'0 0.0
2018-Nov-03 08:00N 50°49' W 001°06'0 0.0
2018-Nov-03 07:30N 50°49' W 001°06'0 0.0
2018-Nov-03 07:03N 50°49' W 001°06'0 0.0
2018-Nov-03 07:00N 50°49' W 001°06'0 0.0
2018-Nov-03 06:30N 50°49' W 001°06'1 1.8
2018-Nov-03 06:03N 50°48' W 001°07'0 6.4
2018-Nov-03 06:00N 50°48' W 001°07'713.1
2018-Nov-03 05:31N 50°42' W 001°02'613.9
2018-Nov-03 05:03N 50°37' W 001°08'111.7
2018-Nov-03 05:00N 50°36' W 001°08'613.1
2018-Nov-03 04:30N 50°31' W 001°14'1213.3
2018-Nov-03 03:38N 50°21' W 001°23'212.9
2018-Nov-03 03:29N 50°19' W 001°25'612.8
2018-Nov-03 03:03N 50°15' W 001°30'112.5
2018-Nov-03 03:00N 50°14' W 001°30'612.6
2018-Nov-03 02:30N 50°09' W 001°36'612.6
2018-Nov-03 02:04N 50°04' W 001°41'112.5
2018-Nov-03 02:01N 50°04' W 001°41'612.5
2018-Nov-03 01:30N 49°59' W 001°47'613.1
2018-Nov-03 01:03N 49°54' W 001°52'113.7
2018-Nov-03 01:01N 49°53' W 001°53'713.3
2018-Nov-03 00:30N 49°48' W 001°59'1116.8
2018-Nov-02 23:52N 49°39' W 002°06'615.7
2018-Nov-02 23:30N 49°33' W 002°11'716.8
2018-Nov-02 23:03N 49°29' W 002°20'117.2
2018-Nov-02 23:00N 49°28' W 002°21'611.6
2018-Nov-02 22:31N 49°27' W 002°30'1 2.9
2018-Nov-02 22:03N 49°27' W 002°32'0 0.0
2018-Nov-02 22:00N 49°27' W 002°32'0 0.0
2018-Nov-02 21:30N 49°27' W 002°32'0 0.0
2018-Nov-02 21:03N 49°27' W 002°32'0 0.0
2018-Nov-02 21:00N 49°27' W 002°32'0 0.0
2018-Nov-02 20:30N 49°27' W 002°32'510.2
2018-Nov-02 20:03N 49°24' W 002°28'116.8
2018-Nov-02 20:00N 49°23' W 002°27'18 5.5
2018-Nov-02 16:43N 49°11' W 002°07'612.2
2018-Nov-02 16:12N 49°10' W 002°17'514.0
2018-Nov-02 15:49N 49°15' W 002°20'1615.5
2018-Nov-02 14:45N 49°30' W 002°12'1614.2
2018-Nov-02 13:37N 49°45' W 002°01'213.7
2018-Nov-02 13:30N 49°46' W 001°60'715.0
2018-Nov-02 13:03N 49°52' W 001°55'116.0
2018-Nov-02 13:00N 49°53' W 001°54'816.2
2018-Nov-02 12:30N 49°60' W 001°47'816.8
2018-Nov-02 12:04N 50°06' W 001°41'116.7
2018-Nov-02 12:00N 50°06' W 001°40'1017.3
2018-Nov-02 11:25N 50°15' W 001°31'1217.5
2018-Nov-02 10:44N 50°25' W 001°20'417.7
2018-Nov-02 10:30N 50°28' W 001°17'818.1
2018-Nov-02 10:03N 50°35' W 001°10'118.5
2018-Nov-02 10:00N 50°36' W 001°09'817.0
2018-Nov-02 09:31N 50°43' W 001°03'613.0
2018-Nov-02 09:03N 50°48' W 001°07'0 5.7
2018-Nov-02 09:00N 50°49' W 001°07'1 1.2
2018-Nov-02 08:30N 50°49' W 001°06'0 0.0
2018-Nov-02 08:04N 50°49' W 001°06'0 0.0
2018-Nov-02 08:00N 50°49' W 001°06'0 0.0
2018-Nov-02 07:31N 50°49' W 001°06'0 0.0
2018-Nov-02 07:04N 50°49' W 001°06'0 0.0
2018-Nov-02 07:01N 50°49' W 001°06'0 0.0
2018-Nov-02 06:30N 50°49' W 001°06'1 2.3
2018-Nov-02 06:04N 50°48' W 001°07'0 9.6
2018-Nov-02 06:01N 50°48' W 001°07'713.5
2018-Nov-02 05:31N 50°41' W 001°03'715.1
2018-Nov-02 05:03N 50°36' W 001°09'114.8
2018-Nov-02 05:00N 50°35' W 001°09'714.7
2018-Nov-02 04:30N 50°29' W 001°16'1114.8
2018-Nov-02 03:46N 50°20' W 001°25'414.9
2018-Nov-02 03:30N 50°16' W 001°27'612.8
2018-Nov-02 03:03N 50°11' W 001°32'112.8
2018-Nov-02 03:00N 50°11' W 001°32'713.3
2018-Nov-02 02:30N 50°05' W 001°39'613.3
2018-Nov-02 02:03N 50°01' W 001°44'113.3
2018-Nov-02 02:00N 50°00' W 001°45'713.3
2018-Nov-02 01:30N 49°55' W 001°51'613.4
2018-Nov-02 01:04N 49°50' W 001°56'113.5
2018-Nov-02 01:00N 49°49' W 001°57'112.3
2018-Nov-02 00:56N 49°48' W 001°58'1618.2
2018-Nov-02 00:03N 49°34' W 002°09'117.3
2018-Nov-01 23:58N 49°33' W 002°10'817.2
2018-Nov-01 23:30N 49°25' W 002°14'816.8
2018-Nov-01 23:02N 49°18' W 002°19'116.9
2018-Nov-01 23:00N 49°18' W 002°20'2 0.5
2018-Nov-01 18:33N 49°16' W 002°22'313.7
2018-Nov-01 18:20N 49°19' W 002°24'414.0
2018-Nov-01 18:03N 49°22' W 002°27'114.2
2018-Nov-01 18:00N 49°23' W 002°28'510.7
2018-Nov-01 17:30N 49°27' W 002°32'0 0.0
2018-Nov-01 17:03N 49°27' W 002°32'0 0.1
2018-Nov-01 17:00N 49°27' W 002°32'0 0.0
2018-Nov-01 16:30N 49°27' W 002°32'1 2.2
2018-Nov-01 16:03N 49°27' W 002°30'113.7
2018-Nov-01 16:00N 49°27' W 002°30'713.5
2018-Nov-01 15:30N 49°29' W 002°20'816.0
2018-Nov-01 14:59N 49°35' W 002°11'1015.0
2018-Nov-01 14:21N 49°43' W 002°04'513.5
2018-Nov-01 14:00N 49°47' W 001°59'713.8
2018-Nov-01 13:30N 49°52' W 001°53'714.6
2018-Nov-01 13:03N 49°58' W 001°47'114.4
2018-Nov-01 13:00N 49°58' W 001°46'714.8
2018-Nov-01 12:30N 50°04' W 001°40'715.4
2018-Nov-01 12:03N 50°10' W 001°33'115.6
2018-Nov-01 12:00N 50°11' W 001°33'1415.9
2018-Nov-01 11:08N 50°22' W 001°20'116.4
2018-Nov-01 11:03N 50°23' W 001°19'116.4
2018-Nov-01 11:00N 50°24' W 001°18'816.5
2018-Nov-01 10:30N 50°30' W 001°11'816.7
2018-Nov-01 10:03N 50°36' W 001°04'117.0
2018-Nov-01 10:00N 50°37' W 001°03'713.9
2018-Nov-01 09:30N 50°44' W 001°04'510.5
2018-Nov-01 09:03N 50°49' W 001°06'0 5.3
2018-Nov-01 09:01N 50°49' W 001°06'0 0.1
2018-Nov-01 08:30N 50°49' W 001°06'0 0.0
2018-Nov-01 08:03N 50°49' W 001°06'0 0.0
2018-Nov-01 08:00N 50°49' W 001°06'0 0.0
2018-Nov-01 07:30N 50°49' W 001°06'0 0.0
2018-Nov-01 07:03N 50°49' W 001°06'0 0.0
2018-Nov-01 07:00N 50°49' W 001°06'0 0.0
2018-Nov-01 06:30N 50°49' W 001°06'1 2.3
2018-Nov-01 06:03N 50°48' W 001°07'0 8.2
2018-Nov-01 06:00N 50°48' W 001°07'713.5
2018-Nov-01 05:31N 50°42' W 001°02'715.4
2018-Nov-01 05:04N 50°36' W 001°09'114.0
2018-Nov-01 05:00N 50°35' W 001°09'611.8
2018-Nov-01 04:30N 50°31' W 001°15'1312.2
2018-Nov-01 03:27N 50°20' W 001°26'512.4
2018-Nov-01 03:03N 50°16' W 001°30'013.1
2018-Nov-01 03:00N 50°15' W 001°31'612.6
2018-Nov-01 02:31N 50°10' W 001°36'  
Track history (hours):
 
Tides and Currents Weather Stations Pressure Air Temp Water Temp Dewpoint Dewpoint Depression Visibility Wind Speed Wind Dir Waves Ship Positions

Commodore Clipper

Operator: Condor Marine Services

Last reported at 2018-Nov-11 02:24 UTC. Time now 2018-Nov-14 02:28 UTC.
Position N 49°45' W 002°04'.

Length 130 m; draft 5.3 m.

Type: Ship. MMSI: 308094000.

Date/timePositionNaut miles runAvg speedWind from/ knotsBaromVisibWave heightAir tempDewpointWater temp
2018-Nov-11 02:24N 49°45' W 002°04'712.5
2018-Nov-11 01:51N 49°38' W 002°06'514.8
2018-Nov-11 01:31N 49°33' W 002°08'715.7
2018-Nov-11 01:02N 49°27' W 002°14'816.1
2018-Nov-11 00:32N 49°20' W 002°20'915.2
2018-Nov-10 23:57N 49°11' W 002°19'9 2.4
2018-Nov-10 20:05N 49°18' W 002°28'114.0
2018-Nov-10 20:02N 49°19' W 002°28'713.7
2018-Nov-10 19:32N 49°25' W 002°29'3 5.3
2018-Nov-10 19:02N 49°27' W 002°32'0 0.0
2018-Nov-10 18:32N 49°27' W 002°32'0 0.0
2018-Nov-10 18:01N 49°27' W 002°32'0 0.0
2018-Nov-10 17:32N 49°27' W 002°32'0 0.0
2018-Nov-10 17:02N 49°27' W 002°32'3 6.9
2018-Nov-10 16:32N 49°26' W 002°27'916.7
2018-Nov-10 16:02N 49°30' W 002°16'816.4
2018-Nov-10 15:32N 49°35' W 002°06'1120.0
2018-Nov-10 15:00N 49°45' W 002°00'918.9
2018-Nov-10 14:32N 49°52' W 001°52'918.1
2018-Nov-10 14:02N 49°59' W 001°44'917.1
2018-Nov-10 13:32N 50°05' W 001°34'816.3
2018-Nov-10 13:03N 50°11' W 001°25'815.8
2018-Nov-10 12:31N 50°17' W 001°17'815.5
2018-Nov-10 12:02N 50°25' W 001°13'715.2
2018-Nov-10 11:33N 50°32' W 001°11'714.3
2018-Nov-10 11:03N 50°38' W 001°06'612.1
2018-Nov-10 10:33N 50°44' W 001°04'5 9.4
2018-Nov-10 10:02N 50°49' W 001°07'1 1.2
2018-Nov-10 09:32N 50°49' W 001°06'0 0.0
2018-Nov-10 09:02N 50°49' W 001°06'0 0.0
2018-Nov-10 08:32N 50°49' W 001°06'0 0.0
2018-Nov-10 08:02N 50°49' W 001°06'0 0.0
2018-Nov-10 07:32N 50°49' W 001°06'0 0.0
2018-Nov-10 07:02N 50°49' W 001°06'0 0.0
2018-Nov-10 06:32N 50°49' W 001°06'0 0.0
2018-Nov-10 06:02N 50°49' W 001°06'0 0.0
2018-Nov-10 05:32N 50°49' W 001°06'0 0.0
2018-Nov-10 05:02N 50°49' W 001°06'0 0.0
2018-Nov-10 04:32N 50°49' W 001°06'0 0.0
2018-Nov-10 04:02N 50°49' W 001°06'0 0.0
2018-Nov-10 03:32N 50°49' W 001°06'0 0.0
2018-Nov-10 03:02N 50°49' W 001°06'0 0.0
2018-Nov-10 02:32N 50°49' W 001°06'0 0.0
2018-Nov-10 02:02N 50°49' W 001°06'0 0.0
2018-Nov-10 01:32N 50°49' W 001°06'0 0.0
2018-Nov-10 01:02N 50°49' W 001°06'0 0.0
2018-Nov-10 00:32N 50°49' W 001°06'0 0.0
2018-Nov-10 00:02N 50°49' W 001°06'0 0.0
2018-Nov-09 23:32N 50°49' W 001°06'0 0.0
2018-Nov-09 23:02N 50°49' W 001°06'0 0.0
2018-Nov-09 22:32N 50°49' W 001°06'0 0.0
2018-Nov-09 22:02N 50°49' W 001°06'0 0.0
2018-Nov-09 21:32N 50°49' W 001°06'0 0.0
2018-Nov-09 21:02N 50°49' W 001°06'0 0.0
2018-Nov-09 20:32N 50°49' W 001°06'0 0.0
2018-Nov-09 20:02N 50°49' W 001°06'0 0.0
2018-Nov-09 19:32N 50°49' W 001°06'0 0.0
2018-Nov-09 19:02N 50°49' W 001°06'0 0.0
2018-Nov-09 18:32N 50°49' W 001°06'0 0.0
2018-Nov-09 18:02N 50°49' W 001°06'0 0.0
2018-Nov-09 17:32N 50°49' W 001°06'0 0.0
2018-Nov-09 17:02N 50°49' W 001°06'0 0.0
2018-Nov-09 16:32N 50°49' W 001°06'0 0.0
2018-Nov-09 16:02N 50°49' W 001°06'0 0.0
2018-Nov-09 15:32N 50°49' W 001°06'0 0.0
2018-Nov-09 15:02N 50°49' W 001°06'0 0.0
2018-Nov-09 14:32N 50°49' W 001°06'0 0.0
2018-Nov-09 14:02N 50°49' W 001°06'0 0.0
2018-Nov-09 13:32N 50°49' W 001°06'0 0.0
2018-Nov-09 13:02N 50°49' W 001°06'0 0.0
2018-Nov-09 12:32N 50°49' W 001°06'0 0.0
2018-Nov-09 12:02N 50°49' W 001°06'0 0.0
2018-Nov-09 11:32N 50°49' W 001°06'0 0.0
2018-Nov-09 11:02N 50°49' W 001°06'0 0.0
2018-Nov-09 10:32N 50°49' W 001°06'0 0.0
2018-Nov-09 10:02N 50°49' W 001°06'0 0.0
2018-Nov-09 09:32N 50°49' W 001°06'0 0.0
2018-Nov-09 09:02N 50°49' W 001°06'0 0.0
2018-Nov-09 08:32N 50°49' W 001°06'0 0.0
2018-Nov-09 08:02N 50°49' W 001°06'0 0.0
2018-Nov-09 07:32N 50°49' W 001°06'0 0.0
2018-Nov-09 07:02N 50°49' W 001°06'0 0.3
2018-Nov-09 06:32N 50°49' W 001°06'4 7.5
2018-Nov-09 06:03N 50°45' W 001°05'713.8
2018-Nov-09 05:32N 50°38' W 001°02'816.8
2018-Nov-09 05:02N 50°31' W 001°10'816.1
2018-Nov-09 04:32N 50°25' W 001°17'815.7
2018-Nov-09 04:02N 50°18' W 001°24'714.7
2018-Nov-09 03:32N 50°13' W 001°32'714.0
2018-Nov-09 03:02N 50°08' W 001°40'713.8
2018-Nov-09 02:32N 50°03' W 001°47'713.9
2018-Nov-09 02:02N 49°57' W 001°53'713.8
2018-Nov-09 01:32N 49°51' W 001°58'813.4
2018-Nov-09 00:58N 49°44' W 002°03'1313.5
2018-Nov-09 00:01N 49°32' W 002°07'916.1
2018-Nov-08 23:28N 49°24' W 002°15'716.1
2018-Nov-08 23:02N 49°18' W 002°20'2 0.6
2018-Nov-08 18:53N 49°18' W 002°24'514.8
2018-Nov-08 18:32N 49°23' W 002°27'611.8
2018-Nov-08 18:02N 49°27' W 002°32'0 0.0
2018-Nov-08 17:32N 49°27' W 002°32'0 0.0
2018-Nov-08 17:02N 49°27' W 002°32'0 0.0
2018-Nov-08 16:32N 49°27' W 002°32'4 8.2
2018-Nov-08 16:02N 49°26' W 002°26'1217.1
2018-Nov-08 15:22N 49°33' W 002°11'617.9
2018-Nov-08 15:02N 49°37' W 002°05'919.3
2018-Nov-08 14:32N 49°46' W 002°01'918.4
2018-Nov-08 14:02N 49°54' W 001°53'918.7
2018-Nov-08 13:32N 50°02' W 001°45'917.7
2018-Nov-08 13:02N 50°10' W 001°38'816.9
2018-Nov-08 12:32N 50°17' W 001°31'1114.3
2018-Nov-08 11:46N 50°25' W 001°20'314.7
2018-Nov-08 11:32N 50°28' W 001°17'714.9
2018-Nov-08 11:02N 50°34' W 001°10'815.3
2018-Nov-08 10:32N 50°40' W 001°03'713.4
2018-Nov-08 10:02N 50°47' W 001°06'2 3.8
2018-Nov-08 09:32N 50°49' W 001°06'0 0.0
2018-Nov-08 09:02N 50°49' W 001°06'0 0.0
2018-Nov-08 08:32N 50°49' W 001°06'0 0.0
2018-Nov-08 08:02N 50°49' W 001°06'0 0.0
2018-Nov-08 07:32N 50°49' W 001°06'2 4.3
2018-Nov-08 07:02N 50°47' W 001°06'510.8
2018-Nov-08 06:33N 50°42' W 001°01'917.9
2018-Nov-08 06:02N 50°34' W 001°07'1018.4
2018-Nov-08 05:31N 50°26' W 001°15'817.6
2018-Nov-08 05:02N 50°19' W 001°21'816.6
2018-Nov-08 04:33N 50°12' W 001°29'815.7
2018-Nov-08 04:02N 50°06' W 001°37'815.3
2018-Nov-08 03:33N 50°00' W 001°44'714.7
2018-Nov-08 03:02N 49°54' W 001°51'714.4
2018-Nov-08 02:32N 49°49' W 001°58'812.8
2018-Nov-08 01:57N 49°43' W 002°05'712.5
2018-Nov-08 01:25N 49°36' W 002°07'514.2
2018-Nov-08 01:02N 49°31' W 002°09'514.5
2018-Nov-08 00:41N 49°26' W 002°13'214.5
2018-Nov-08 00:32N 49°25' W 002°15'214.9
2018-Nov-08 00:26N 49°23' W 002°16'614.4
2018-Nov-08 00:00N 49°18' W 002°22'5 1.7
2018-Nov-07 20:54N 49°13' W 002°20'715.2
2018-Nov-07 20:28N 49°19' W 002°24'716.2
2018-Nov-07 20:02N 49°25' W 002°29'3 5.2
2018-Nov-07 19:32N 49°27' W 002°32'0 0.0
2018-Nov-07 19:02N 49°27' W 002°32'0 0.0
2018-Nov-07 18:32N 49°27' W 002°32'0 0.0
2018-Nov-07 18:02N 49°27' W 002°32'2 3.1
2018-Nov-07 17:32N 49°27' W 002°30'510.1
2018-Nov-07 17:02N 49°28' W 002°22'814.2
2018-Nov-07 16:28N 49°33' W 002°12'714.0
2018-Nov-07 15:58N 49°38' W 002°05'715.6
2018-Nov-07 15:31N 49°44' W 002°00'817.0
2018-Nov-07 15:02N 49°49' W 001°50'917.8
2018-Nov-07 14:32N 49°54' W 001°39'816.9
2018-Nov-07 14:02N 50°01' W 001°32'815.7
2018-Nov-07 13:32N 50°08' W 001°26'713.7
2018-Nov-07 13:02N 50°15' W 001°24'1012.4
2018-Nov-07 12:16N 50°24' W 001°20'313.1
2018-Nov-07 12:02N 50°27' W 001°18'714.9
2018-Nov-07 11:33N 50°33' W 001°11'815.5
2018-Nov-07 11:02N 50°40' W 001°05'612.4
2018-Nov-07 10:32N 50°46' W 001°05'3 6.1
2018-Nov-07 10:02N 50°49' W 001°06'0 0.0
2018-Nov-07 09:32N 50°49' W 001°06'0 0.0
2018-Nov-07 09:02N 50°49' W 001°06'0 0.0
2018-Nov-07 08:32N 50°49' W 001°06'0 0.0
2018-Nov-07 08:02N 50°49' W 001°06'0 0.0
2018-Nov-07 07:32N 50°49' W 001°06'0 0.0
2018-Nov-07 07:02N 50°49' W 001°06'0 0.0
2018-Nov-07 06:32N 50°49' W 001°06'1 2.2
2018-Nov-07 06:02N 50°48' W 001°07'612.4
2018-Nov-07 05:32N 50°43' W 001°01'612.9
2018-Nov-07 05:02N 50°37' W 001°05'2 4.1
2018-Nov-07 04:32N 50°38' W 001°08'5410.8
2018-Nov-06 23:30N 49°52' W 001°54'612.6
2018-Nov-06 23:03N 49°47' W 001°58'211.0
2018-Nov-06 22:54N 49°46' W 002°00'1111.6
2018-Nov-06 21:59N 49°37' W 002°08'510.6
2018-Nov-06 21:28N 49°32' W 002°13'511.3
2018-Nov-06 21:03N 49°30' W 002°19'111.7
2018-Nov-06 21:00N 49°29' W 002°20'612.2
2018-Nov-06 20:30N 49°26' W 002°27'20 5.4
2018-Nov-06 16:45N 49°10' W 002°08'813.3
2018-Nov-06 16:10N 49°12' W 002°19'214.3
2018-Nov-06 16:00N 49°14' W 002°21'1912.5
2018-Nov-06 14:30N 49°32' W 002°09'1618.3
2018-Nov-06 13:39N 49°46' W 002°01'318.6
2018-Nov-06 13:31N 49°48' W 001°59'818.5
2018-Nov-06 13:04N 49°56' W 001°52'118.6
2018-Nov-06 13:01N 49°56' W 001°52'918.7
2018-Nov-06 12:30N 50°04' W 001°44'918.8
2018-Nov-06 12:03N 50°11' W 001°36'118.6
2018-Nov-06 12:01N 50°12' W 001°35'1617.9
2018-Nov-06 11:05N 50°25' W 001°20'117.5
2018-Nov-06 11:01N 50°26' W 001°19'018.1
2018-Nov-06 11:00N 50°26' W 001°19'917.7
2018-Nov-06 10:30N 50°34' W 001°11'817.6
2018-Nov-06 10:03N 50°40' W 001°04'117.2
2018-Nov-06 10:01N 50°41' W 001°03'713.8
2018-Nov-06 09:30N 50°47' W 001°07'2 3.5
2018-Nov-06 09:03N 50°49' W 001°06'0 0.0
2018-Nov-06 09:01N 50°49' W 001°06'0 0.0
2018-Nov-06 08:30N 50°49' W 001°06'0 0.0
2018-Nov-06 08:03N 50°49' W 001°06'0 0.1
2018-Nov-06 08:01N 50°49' W 001°06'0 0.0
2018-Nov-06 07:30N 50°49' W 001°06'0 0.0
2018-Nov-06 07:03N 50°49' W 001°06'0 0.1
2018-Nov-06 07:00N 50°49' W 001°06'0 0.0
2018-Nov-06 06:31N 50°49' W 001°06'1 2.7
2018-Nov-06 06:03N 50°48' W 001°07'110.5
2018-Nov-06 06:01N 50°47' W 001°07'713.4
2018-Nov-06 05:31N 50°42' W 001°00'715.1
2018-Nov-06 05:03N 50°36' W 001°05'114.4
2018-Nov-06 05:00N 50°35' W 001°06'714.6
2018-Nov-06 04:30N 50°29' W 001°12'714.6
2018-Nov-06 04:03N 50°24' W 001°18'115.0
2018-Nov-06 04:01N 50°23' W 001°19'815.0
2018-Nov-06 03:30N 50°17' W 001°25'715.3
2018-Nov-06 03:03N 50°11' W 001°31'116.0
2018-Nov-06 03:00N 50°11' W 001°32'815.8
2018-Nov-06 02:30N 50°04' W 001°39'715.2
2018-Nov-06 02:03N 49°59' W 001°46'114.9
2018-Nov-06 02:00N 49°58' W 001°47'714.8
2018-Nov-06 01:30N 49°52' W 001°54'1313.4
2018-Nov-06 00:30N 49°41' W 002°05'1313.5
2018-Nov-05 23:30N 49°30' W 002°17'714.5
2018-Nov-05 23:03N 49°27' W 002°26'112.9
2018-Nov-05 23:00N 49°26' W 002°26'4 7.2
2018-Nov-05 22:30N 49°27' W 002°32'0 0.0
2018-Nov-05 22:03N 49°27' W 002°32'0 0.0
2018-Nov-05 22:00N 49°27' W 002°32'0 0.0
2018-Nov-05 21:30N 49°27' W 002°32'0 0.0
2018-Nov-05 21:03N 49°27' W 002°32'0 0.0
2018-Nov-05 21:00N 49°27' W 002°32'23 5.7
2018-Nov-05 16:53N 49°11' W 002°07'712.5
2018-Nov-05 16:17N 49°11' W 002°18'413.5
2018-Nov-05 16:00N 49°13' W 002°22'1412.9
2018-Nov-05 14:56N 49°26' W 002°14'2216.7
2018-Nov-05 13:39N 49°46' W 002°01'1118.3
2018-Nov-05 13:03N 49°55' W 001°51'119.0
2018-Nov-05 13:01N 49°56' W 001°51'918.8
2018-Nov-05 12:31N 50°03' W 001°42'818.7
2018-Nov-05 12:04N 50°10' W 001°35'118.3
2018-Nov-05 12:00N 50°11' W 001°34'918.3
2018-Nov-05 11:30N 50°19' W 001°27'818.1
2018-Nov-05 11:03N 50°26' W 001°20'118.1
2018-Nov-05 11:00N 50°26' W 001°19'918.5
2018-Nov-05 10:30N 50°34' W 001°11'818.6
2018-Nov-05 10:03N 50°41' W 001°03'116.0
2018-Nov-05 10:01N 50°42' W 001°03'713.6
2018-Nov-05 09:30N 50°48' W 001°07'1 2.6
2018-Nov-05 09:03N 50°49' W 001°06'0 0.1
2018-Nov-05 09:00N 50°49' W 001°06'0 0.0
2018-Nov-05 08:30N 50°49' W 001°06'0 0.0
2018-Nov-05 08:03N 50°49' W 001°06'0 0.0
2018-Nov-05 08:00N 50°49' W 001°06'0 0.0
2018-Nov-05 07:30N 50°49' W 001°06'0 0.0
2018-Nov-05 07:03N 50°49' W 001°06'0 0.0
2018-Nov-05 07:00N 50°49' W 001°06'0 0.0
2018-Nov-05 06:30N 50°49' W 001°06'0 0.0
2018-Nov-05 06:03N 50°49' W 001°06'0 0.2
2018-Nov-05 06:00N 50°49' W 001°06'0 0.0
2018-Nov-05 05:30N 50°49' W 001°06'0 0.0
2018-Nov-05 05:03N 50°49' W 001°06'0 0.0
2018-Nov-05 05:00N 50°49' W 001°06'0 0.0
2018-Nov-05 04:30N 50°49' W 001°06'0 0.0
2018-Nov-05 04:03N 50°49' W 001°06'0 0.0
2018-Nov-05 04:00N 50°49' W 001°06'0 0.0
2018-Nov-05 03:30N 50°49' W 001°06'0 0.0
2018-Nov-05 03:03N 50°49' W 001°06'0 0.0
2018-Nov-05 03:00N 50°49' W 001°06'0 0.0
2018-Nov-05 02:30N 50°49' W 001°06'0 0.0
2018-Nov-05 02:03N 50°49' W 001°06'0 0.1
2018-Nov-05 02:00N 50°49' W 001°06'0 0.0
2018-Nov-05 01:30N 50°49' W 001°06'0 0.0
2018-Nov-05 01:03N 50°49' W 001°06'0 0.0
2018-Nov-05 01:00N 50°49' W 001°06'0 0.0
2018-Nov-05 00:30N 50°49' W 001°06'0 0.0
2018-Nov-05 00:03N 50°49' W 001°06'0 0.0
2018-Nov-05 00:00N 50°49' W 001°06'0 0.0
2018-Nov-04 23:30N 50°49' W 001°06'0 0.0
2018-Nov-04 23:03N 50°49' W 001°06'0 0.0
2018-Nov-04 23:00N 50°49' W 001°06'0 0.0
2018-Nov-04 22:30N 50°49' W 001°06'0 0.0
2018-Nov-04 22:03N 50°49' W 001°06'0 0.0
2018-Nov-04 22:00N 50°49' W 001°06'0 0.0
2018-Nov-04 21:30N 50°49' W 001°06'0 0.0
2018-Nov-04 21:03N 50°49' W 001°06'0 0.0
2018-Nov-04 21:00N 50°49' W 001°06'0 0.0
2018-Nov-04 20:30N 50°49' W 001°06'0 0.0
2018-Nov-04 20:03N 50°49' W 001°06'0 0.0
2018-Nov-04 20:00N 50°49' W 001°06'0 0.0
2018-Nov-04 19:30N 50°49' W 001°06'0 0.0
2018-Nov-04 19:03N 50°49' W 001°06'0 0.1
2018-Nov-04 19:00N 50°49' W 001°06'0 0.0
2018-Nov-04 18:30N 50°49' W 001°06'0 0.0
2018-Nov-04 18:03N 50°49' W 001°06'0 0.0
2018-Nov-04 18:00N 50°49' W 001°06'0 0.0
2018-Nov-04 17:03N 50°49' W 001°06'0 0.0
2018-Nov-04 17:00N 50°49' W 001°06'0 0.0
2018-Nov-04 16:30N 50°49' W 001°06'0 0.0
2018-Nov-04 16:03N 50°49' W 001°06'0 0.1
2018-Nov-04 16:00N 50°49' W 001°06'0 0.0
2018-Nov-04 15:30N 50°49' W 001°06'0 0.0
2018-Nov-04 15:03N 50°49' W 001°06'0 0.0
2018-Nov-04 15:00N 50°49' W 001°06'0 0.0
2018-Nov-04 14:30N 50°49' W 001°06'0 0.0
2018-Nov-04 14:03N 50°49' W 001°06'0 0.0
2018-Nov-04 14:00N 50°49' W 001°06'0 0.0
2018-Nov-04 13:30N 50°49' W 001°06'0 0.0
2018-Nov-04 13:03N 50°49' W 001°06'0 0.0
2018-Nov-04 13:00N 50°49' W 001°06'0 0.0
2018-Nov-04 12:30N 50°49' W 001°06'0 0.0
2018-Nov-04 12:03N 50°49' W 001°06'0 0.0
2018-Nov-04 12:00N 50°49' W 001°06'0 0.0
2018-Nov-04 11:30N 50°49' W 001°06'0 0.0
2018-Nov-04 11:03N 50°49' W 001°06'0 0.1
2018-Nov-04 11:00N 50°49' W 001°06'0 0.0
2018-Nov-04 10:30N 50°49' W 001°06'0 0.0
2018-Nov-04 10:03N 50°49' W 001°06'0 0.0
2018-Nov-04 10:00N 50°49' W 001°06'0 0.0
2018-Nov-04 09:30N 50°49' W 001°06'0 0.0
2018-Nov-04 09:03N 50°49' W 001°06'0 0.0
2018-Nov-04 09:00N 50°49' W 001°06'0 0.0
2018-Nov-04 08:30N 50°49' W 001°06'0 0.0
2018-Nov-04 08:03N 50°49' W 001°06'0 0.0
2018-Nov-04 08:00N 50°49' W 001°06'0 0.0
2018-Nov-04 07:30N 50°49' W 001°06'0 0.0
2018-Nov-04 07:03N 50°49' W 001°06'0 0.0
2018-Nov-04 07:00N 50°49' W 001°06'0 0.0
2018-Nov-04 06:30N 50°49' W 001°06'1 1.9
2018-Nov-04 06:04N 50°48' W 001°07'0 8.7
2018-Nov-04 06:01N 50°48' W 001°07'713.2
2018-Nov-04 05:31N 50°42' W 001°03'612.9
2018-Nov-04 05:04N 50°37' W 001°07'0 8.0
2018-Nov-04 05:01N 50°37' W 001°07'510.9
2018-Nov-04 04:30N 50°32' W 001°12'511.8
2018-Nov-04 04:03N 50°28' W 001°16'111.7
2018-Nov-04 04:00N 50°27' W 001°17'711.6
2018-Nov-04 03:23N 50°21' W 001°22'413.7
2018-Nov-04 03:03N 50°17' W 001°26'117.6
2018-Nov-04 03:01N 50°16' W 001°27'917.4
2018-Nov-04 02:30N 50°09' W 001°35'817.2
2018-Nov-04 02:03N 50°03' W 001°42'116.8
2018-Nov-04 02:00N 50°02' W 001°42'816.8
2018-Nov-04 01:31N 49°56' W 001°50'716.6
2018-Nov-04 01:03N 49°49' W 001°57'116.8
2018-Nov-04 01:00N 49°49' W 001°58'1215.2
2018-Nov-04 00:13N 49°38' W 002°07'215.1
2018-Nov-04 00:03N 49°36' W 002°08'115.2
2018-Nov-04 00:00N 49°35' W 002°09'816.0
2018-Nov-03 23:30N 49°30' W 002°18'715.3
2018-Nov-03 23:03N 49°26' W 002°27'114.4
2018-Nov-03 23:00N 49°26' W 002°27'3 6.8
2018-Nov-03 22:30N 49°27' W 002°32'10 4.8
2018-Nov-03 20:26N 49°19' W 002°24'9 2.4
2018-Nov-03 16:46N 49°11' W 002°18'414.4
2018-Nov-03 16:28N 49°15' W 002°20'1914.0
2018-Nov-03 15:05N 49°33' W 002°10'113.4
2018-Nov-03 15:02N 49°34' W 002°10'1012.6
2018-Nov-03 14:13N 49°43' W 002°04'312.5
2018-Nov-03 13:57N 49°46' W 002°01'613.8
2018-Nov-03 13:30N 49°51' W 001°55'715.1
2018-Nov-03 13:03N 49°57' W 001°50'115.4
2018-Nov-03 13:00N 49°57' W 001°49'815.8
2018-Nov-03 12:30N 50°04' W 001°43'716.4
2018-Nov-03 12:03N 50°10' W 001°36'116.5
2018-Nov-03 12:00N 50°11' W 001°35'1716.6
2018-Nov-03 10:58N 50°25' W 001°20'817.0
2018-Nov-03 10:30N 50°31' W 001°13'817.4
2018-Nov-03 10:03N 50°38' W 001°06'117.1
2018-Nov-03 10:00N 50°38' W 001°05'713.8
2018-Nov-03 09:30N 50°45' W 001°05'3 7.5
2018-Nov-03 09:03N 50°49' W 001°06'0 0.3
2018-Nov-03 09:00N 50°49' W 001°06'0 0.0
2018-Nov-03 08:30N 50°49' W 001°06'0 0.0
2018-Nov-03 08:03N 50°49' W 001°06'0 0.0
2018-Nov-03 08:00N 50°49' W 001°06'0 0.0
2018-Nov-03 07:30N 50°49' W 001°06'0 0.0
2018-Nov-03 07:03N 50°49' W 001°06'0 0.0
2018-Nov-03 07:00N 50°49' W 001°06'0 0.0
2018-Nov-03 06:30N 50°49' W 001°06'1 1.8
2018-Nov-03 06:03N 50°48' W 001°07'0 6.4
2018-Nov-03 06:00N 50°48' W 001°07'713.1
2018-Nov-03 05:31N 50°42' W 001°02'613.9
2018-Nov-03 05:03N 50°37' W 001°08'111.7
2018-Nov-03 05:00N 50°36' W 001°08'613.1
2018-Nov-03 04:30N 50°31' W 001°14'1213.3
2018-Nov-03 03:38N 50°21' W 001°23'212.9
2018-Nov-03 03:29N 50°19' W 001°25'612.8
2018-Nov-03 03:03N 50°15' W 001°30'112.5
2018-Nov-03 03:00N 50°14' W 001°30'612.6
2018-Nov-03 02:30N 50°09' W 001°36'612.6
2018-Nov-03 02:04N 50°04' W 001°41'112.5
2018-Nov-03 02:01N 50°04' W 001°41'612.5
2018-Nov-03 01:30N 49°59' W 001°47'613.1
2018-Nov-03 01:03N 49°54' W 001°52'113.7
2018-Nov-03 01:01N 49°53' W 001°53'713.3
2018-Nov-03 00:30N 49°48' W 001°59'1116.8
2018-Nov-02 23:52N 49°39' W 002°06'615.7
2018-Nov-02 23:30N 49°33' W 002°11'716.8
2018-Nov-02 23:03N 49°29' W 002°20'117.2
2018-Nov-02 23:00N 49°28' W 002°21'611.6
2018-Nov-02 22:31N 49°27' W 002°30'1 2.9
2018-Nov-02 22:03N 49°27' W 002°32'0 0.0
2018-Nov-02 22:00N 49°27' W 002°32'0 0.0
2018-Nov-02 21:30N 49°27' W 002°32'0 0.0
2018-Nov-02 21:03N 49°27' W 002°32'0 0.0
2018-Nov-02 21:00N 49°27' W 002°32'0 0.0
2018-Nov-02 20:30N 49°27' W 002°32'510.2
2018-Nov-02 20:03N 49°24' W 002°28'116.8
2018-Nov-02 20:00N 49°23' W 002°27'18 5.5
2018-Nov-02 16:43N 49°11' W 002°07'612.2
2018-Nov-02 16:12N 49°10' W 002°17'514.0
2018-Nov-02 15:49N 49°15' W 002°20'1615.5
2018-Nov-02 14:45N 49°30' W 002°12'1614.2
2018-Nov-02 13:37N 49°45' W 002°01'213.7
2018-Nov-02 13:30N 49°46' W 001°60'715.0
2018-Nov-02 13:03N 49°52' W 001°55'116.0
2018-Nov-02 13:00N 49°53' W 001°54'816.2
2018-Nov-02 12:30N 49°60' W 001°47'816.8
2018-Nov-02 12:04N 50°06' W 001°41'116.7
2018-Nov-02 12:00N 50°06' W 001°40'1017.3
2018-Nov-02 11:25N 50°15' W 001°31'1217.5
2018-Nov-02 10:44N 50°25' W 001°20'417.7
2018-Nov-02 10:30N 50°28' W 001°17'818.1
2018-Nov-02 10:03N 50°35' W 001°10'118.5
2018-Nov-02 10:00N 50°36' W 001°09'817.0
2018-Nov-02 09:31N 50°43' W 001°03'613.0
2018-Nov-02 09:03N 50°48' W 001°07'0 5.7
2018-Nov-02 09:00N 50°49' W 001°07'1 1.2
2018-Nov-02 08:30N 50°49' W 001°06'0 0.0
2018-Nov-02 08:04N 50°49' W 001°06'0 0.0
2018-Nov-02 08:00N 50°49' W 001°06'0 0.0
2018-Nov-02 07:31N 50°49' W 001°06'0 0.0
2018-Nov-02 07:04N 50°49' W 001°06'0 0.0
2018-Nov-02 07:01N 50°49' W 001°06'0 0.0
2018-Nov-02 06:30N 50°49' W 001°06'1 2.3
2018-Nov-02 06:04N 50°48' W 001°07'0 9.6
2018-Nov-02 06:01N 50°48' W 001°07'713.5
2018-Nov-02 05:31N 50°41' W 001°03'715.1
2018-Nov-02 05:03N 50°36' W 001°09'114.8
2018-Nov-02 05:00N 50°35' W 001°09'714.7
2018-Nov-02 04:30N 50°29' W 001°16'1114.8
2018-Nov-02 03:46N 50°20' W 001°25'414.9
2018-Nov-02 03:30N 50°16' W 001°27'612.8
2018-Nov-02 03:03N 50°11' W 001°32'112.8
2018-Nov-02 03:00N 50°11' W 001°32'713.3
2018-Nov-02 02:30N 50°05' W 001°39'613.3
2018-Nov-02 02:03N 50°01' W 001°44'113.3
2018-Nov-02 02:00N 50°00' W 001°45'713.3
2018-Nov-02 01:30N 49°55' W 001°51'613.4
2018-Nov-02 01:04N 49°50' W 001°56'113.5
2018-Nov-02 01:00N 49°49' W 001°57'112.3
2018-Nov-02 00:56N 49°48' W 001°58'1618.2
2018-Nov-02 00:03N 49°34' W 002°09'117.3
2018-Nov-01 23:58N 49°33' W 002°10'817.2
2018-Nov-01 23:30N 49°25' W 002°14'816.8
2018-Nov-01 23:02N 49°18' W 002°19'116.9
2018-Nov-01 23:00N 49°18' W 002°20'2 0.5
2018-Nov-01 18:33N 49°16' W 002°22'313.7
2018-Nov-01 18:20N 49°19' W 002°24'414.0
2018-Nov-01 18:03N 49°22' W 002°27'114.2
2018-Nov-01 18:00N 49°23' W 002°28'510.7
2018-Nov-01 17:30N 49°27' W 002°32'0 0.0
2018-Nov-01 17:03N 49°27' W 002°32'0 0.1
2018-Nov-01 17:00N 49°27' W 002°32'0 0.0
2018-Nov-01 16:30N 49°27' W 002°32'1 2.2
2018-Nov-01 16:03N 49°27' W 002°30'113.7
2018-Nov-01 16:00N 49°27' W 002°30'713.5
2018-Nov-01 15:30N 49°29' W 002°20'816.0
2018-Nov-01 14:59N 49°35' W 002°11'1015.0
2018-Nov-01 14:21N 49°43' W 002°04'513.5
2018-Nov-01 14:00N 49°47' W 001°59'713.8
2018-Nov-01 13:30N 49°52' W 001°53'714.6
2018-Nov-01 13:03N 49°58' W 001°47'114.4
2018-Nov-01 13:00N 49°58' W 001°46'714.8
2018-Nov-01 12:30N 50°04' W 001°40'715.4
2018-Nov-01 12:03N 50°10' W 001°33'115.6
2018-Nov-01 12:00N 50°11' W 001°33'1415.9
2018-Nov-01 11:08N 50°22' W 001°20'116.4
2018-Nov-01 11:03N 50°23' W 001°19'116.4
2018-Nov-01 11:00N 50°24' W 001°18'816.5
2018-Nov-01 10:30N 50°30' W 001°11'816.7
2018-Nov-01 10:03N 50°36' W 001°04'117.0
2018-Nov-01 10:00N 50°37' W 001°03'713.9
2018-Nov-01 09:30N 50°44' W 001°04'510.5
2018-Nov-01 09:03N 50°49' W 001°06'0 5.3
2018-Nov-01 09:01N 50°49' W 001°06'0 0.1
2018-Nov-01 08:30N 50°49' W 001°06'0 0.0
2018-Nov-01 08:03N 50°49' W 001°06'0 0.0
2018-Nov-01 08:00N 50°49' W 001°06'0 0.0
2018-Nov-01 07:30N 50°49' W 001°06'0 0.0
2018-Nov-01 07:03N 50°49' W 001°06'0 0.0
2018-Nov-01 07:00N 50°49' W 001°06'0 0.0
2018-Nov-01 06:30N 50°49' W 001°06'1 2.3
2018-Nov-01 06:03N 50°48' W 001°07'0 8.2
2018-Nov-01 06:00N 50°48' W 001°07'713.5
2018-Nov-01 05:31N 50°42' W 001°02'715.4
2018-Nov-01 05:04N 50°36' W 001°09'114.0
2018-Nov-01 05:00N 50°35' W 001°09'611.8
2018-Nov-01 04:30N 50°31' W 001°15'1312.2
2018-Nov-01 03:27N 50°20' W 001°26'512.4
2018-Nov-01 03:03N 50°16' W 001°30'013.1
2018-Nov-01 03:00N 50°15' W 001°31'612.6
2018-Nov-01 02:31N 50°10' W 001°36'  

Dump ship's entire track history